Weather at Luss Seaplane Terminal

Public forecast

Using degrees Celsius for public forecast. Weather courtesy of forecast.io.

Closest aviation weather report (METAR) to Luss Seaplane Terminal

Closest report is Glasgow International Airport, 16.6 nm (30.8 km) SSE.

2024/05/29 20:50 (retrieved 27 minutes ago)

EGPF 292050Z AUTO 27008KT 9999 BKN047 13/09 Q1007

Closest aviation forecast (TAF) to Luss Seaplane Terminal

Closest forecast is Glasgow International Airport, 16.6 nm (30.8 km) SSE.

2024/05/29 18:15 (retrieved 3 hours ago)

TAF TAF EGPF 291658Z 2918/3018 30010KT 9999 FEW030 PROB30 TEMPO 2918/3003 6000 SHRA BECMG 3012/3015 VRB03KT